Time;durP1;ratioP1;P1;durP2;ratioP2;P2;SDS_P1;SDS_P2;PMS_P1;PMS_P2;Temp;Humidity;BMP_temperature;BMP_pressure;BME280_temperature;BME280_humidity;BME280_pressure;Samples;Min_cycle;Max_cycle;Signal;HPM_P1;HPM_P2
2022/06/14 00:02:46;;;;;;;37.05;12.43;;;;;;;;;;6202130;28;20038;-62
2022/06/14 00:06:05;;;;;;;30.48;13.73;;;;;;;;;;6204254;28;20164;-62
2022/06/14 00:09:20;;;;;;;41.85;13.15;;;;;;;;;;6200826;28;20054;-62
2022/06/14 00:12:22;;;;;;;45.10;14.03;;;;;;;;;;6207228;28;20046;-62
2022/06/14 00:15:23;;;;;;;70.55;14.80;;;;;;;;;;6201945;28;20149;-63
2022/06/14 00:18:23;;;;;;;86.13;13.95;;;;;;;;;;6203493;28;20474;-63
2022/06/14 00:21:24;;;;;;;50.25;14.52;;;;;;;;;;6207196;28;20387;-63
2022/06/14 00:24:26;;;;;;;48.78;13.93;;;;;;;;;;6209916;28;20068;-62
2022/06/14 00:27:27;;;;;;;;;;;;;;;;;;6206403;28;20049;-61
2022/06/14 00:30:29;;;;;;;41.10;14.43;;;;;;;;;;6207048;28;19929;-62
2022/06/14 00:33:30;;;;;;;29.10;13.90;;;;;;;;;;6200099;28;20043;-62
2022/06/14 00:36:33;;;;;;;27.65;14.73;;;;;;;;;;6203664;28;20124;-63
2022/06/14 00:39:34;;;;;;;27.45;13.50;;;;;;;;;;6198523;28;20074;-62
2022/06/14 00:42:34;;;;;;;28.83;14.88;;;;;;;;;;6195779;28;20056;-62
2022/06/14 00:45:35;;;;;;;25.58;13.88;;;;;;;;;;6209413;28;20489;-63
2022/06/14 00:48:35;;;;;;;30.00;14.55;;;;;;;;;;6199001;28;20137;-63
2022/06/14 00:52:01;;;;;;;29.73;16.20;;;;;;;;;;6201601;28;20378;-61
2022/06/14 00:55:19;;;;;;;30.40;16.10;;;;;;;;;;6199253;28;20089;-63
2022/06/14 00:58:27;;;;;;;29.88;15.93;;;;;;;;;;6213191;28;20500;-61
2022/06/14 01:01:34;;;;;;;28.80;15.55;;;;;;;;;;6210450;28;20049;-62
2022/06/14 01:04:35;;;;;;;27.02;15.15;;;;;;;;;;6208467;28;20046;-61
2022/06/14 01:07:40;;;;;;;26.58;15.07;;;;;;;;;;6207106;28;20140;-61
2022/06/14 01:10:43;;;;;;;27.23;15.90;;;;;;;;;;6208025;28;20069;-61
2022/06/14 01:13:44;;;;;;;29.38;15.15;;;;;;;;;;6205011;28;20054;-62
2022/06/14 01:16:45;;;;;;;30.50;15.57;;;;;;;;;;6196692;28;20046;-61
2022/06/14 01:19:46;;;;;;;27.90;14.10;;;;;;;;;;6207449;28;20060;-62
2022/06/14 01:22:48;;;;;;;24.98;14.13;;;;;;;;;;6209092;28;20485;-62
2022/06/14 01:25:53;;;;;;;30.85;14.75;;;;;;;;;;6206063;28;20432;-61
2022/06/14 01:29:04;;;;;;;30.92;16.75;;;;;;;;;;6202611;28;20146;-61
2022/06/14 01:32:09;;;;;;;28.75;14.68;;;;;;;;;;6205366;28;20065;-62
2022/06/14 01:35:14;;;;;;;32.70;17.10;;;;;;;;;;6210608;28;20050;-61
2022/06/14 01:38:16;;;;;;;30.63;17.27;;;;;;;;;;6207383;28;20217;-62
2022/06/14 01:41:22;;;;;;;;;;;;;;;;;;6212423;28;20801;-61
2022/06/14 01:44:40;;;;;;;36.70;18.13;;;;;;;;;;6208780;28;20284;-62
2022/06/14 01:47:58;;;;;;;36.13;18.63;;;;;;;;;;6210365;28;20405;-61
2022/06/14 01:54:27;;;;;;;43.40;19.27;;;;;;;;;;6207882;28;20057;-60
2022/06/14 01:57:52;;;;;;;40.83;18.40;;;;;;;;;;6206533;28;20483;-62
2022/06/14 02:01:18;;;;;;;37.28;18.85;;;;;;;;;;6197707;28;20038;-62
2022/06/14 02:04:38;;;;;;;35.53;18.15;;;;;;;;;;6212456;28;20429;-62
2022/06/14 02:08:19;;;;;;;37.17;20.15;;;;;;;;;;6196374;28;20132;-61
2022/06/14 02:11:32;;;;;;;41.00;18.80;;;;;;;;;;6210334;28;20796;-62
2022/06/14 02:14:39;;;;;;;34.60;18.92;;;;;;;;;;6209623;28;20150;-62
2022/06/14 02:17:46;;;;;;;34.03;18.83;;;;;;;;;;6206928;28;20057;-62
2022/06/14 02:21:08;;;;;;;33.60;17.92;;;;;;;;;;6204740;28;20069;-62
2022/06/14 02:24:17;;;;;;;34.58;17.77;;;;;;;;;;6203366;28;20103;-61
2022/06/14 02:27:35;;;;;;;40.80;18.65;;;;;;;;;;6203624;28;20082;-62
2022/06/14 02:30:42;;;;;;;36.67;17.95;;;;;;;;;;6207479;28;20099;-61
2022/06/14 02:33:51;;;;;;;33.72;18.65;;;;;;;;;;6208928;28;20082;-62
2022/06/14 02:37:01;;;;;;;38.40;18.75;;;;;;;;;;6208254;28;20069;-62
2022/06/14 02:40:14;;;;;;;35.30;17.23;;;;;;;;;;6211849;28;20065;-62
2022/06/14 02:43:26;;;;;;;32.95;17.13;;;;;;;;;;6205341;28;20707;-62
2022/06/14 02:46:33;;;;;;;35.38;18.13;;;;;;;;;;6206488;28;20116;-61
2022/06/14 02:49:49;;;;;;;35.25;17.50;;;;;;;;;;6207942;28;20080;-61
2022/06/14 02:52:58;;;;;;;34.13;17.45;;;;;;;;;;6205706;28;20050;-61
2022/06/14 02:56:14;;;;;;;33.22;19.02;;;;;;;;;;6206464;28;20501;-61
2022/06/14 02:59:42;;;;;;;34.95;16.98;;;;;;;;;;6195840;28;20767;-62
2022/06/14 03:03:02;;;;;;;39.88;17.38;;;;;;;;;;6200327;28;20077;-62
2022/06/14 03:06:27;;;;;;;35.10;16.50;;;;;;;;;;6196885;28;20038;-62
2022/06/14 03:09:48;;;;;;;33.40;17.27;;;;;;;;;;6204737;28;20046;-61
2022/06/14 03:13:16;;;;;;;31.08;16.02;;;;;;;;;;6206779;28;20050;-61
2022/06/14 03:17:00;;;;;;;27.73;16.42;;;;;;;;;;6204625;28;20073;-61
2022/06/14 03:20:33;;;;;;;31.42;15.75;;;;;;;;;;6204838;28;20060;-61
2022/06/14 03:23:47;;;;;;;28.15;15.32;;;;;;;;;;6209968;28;20082;-60
2022/06/14 03:27:02;;;;;;;30.13;15.88;;;;;;;;;;6210095;28;20118;-62
2022/06/14 03:30:06;;;;;;;28.73;15.60;;;;;;;;;;6204910;28;20231;-61
2022/06/14 03:33:33;;;;;;;33.97;15.75;;;;;;;;;;6204706;28;20509;-62
2022/06/14 03:36:33;;;;;;;37.47;16.02;;;;;;;;;;6200072;28;20069;-61
2022/06/14 03:39:37;;;;;;;32.90;15.85;;;;;;;;;;6203484;28;20643;-62
2022/06/14 03:42:39;;;;;;;32.38;15.05;;;;;;;;;;6207177;28;20104;-62
2022/06/14 03:45:49;;;;;;;30.73;15.05;;;;;;;;;;6207109;28;20053;-62
2022/06/14 03:48:54;;;;;;;28.35;14.18;;;;;;;;;;6209658;28;20123;-62
2022/06/14 03:52:03;;;;;;;34.22;15.07;;;;;;;;;;6206887;28;20061;-61
2022/06/14 03:55:39;;;;;;;30.88;15.02;;;;;;;;;;6206857;28;20077;-62
2022/06/14 03:59:05;;;;;;;25.85;13.73;;;;;;;;;;6208015;28;20054;-61
2022/06/14 04:02:15;;;;;;;30.17;13.80;;;;;;;;;;6203838;28;20105;-62
2022/06/14 04:05:38;;;;;;;27.30;12.60;;;;;;;;;;6203873;28;20109;-62
2022/06/14 04:09:00;;;;;;;30.92;13.63;;;;;;;;;;6204725;28;20053;-62
2022/06/14 04:12:19;;;;;;;31.75;12.68;;;;;;;;;;6211647;28;20081;-62
2022/06/14 04:15:38;;;;;;;29.88;13.80;;;;;;;;;;6212756;28;20058;-61
2022/06/14 04:19:03;;;;;;;25.95;12.23;;;;;;;;;;6213551;28;20148;-62
2022/06/14 04:22:45;;;;;;;29.83;13.27;;;;;;;;;;6209626;28;20057;-62
2022/06/14 04:25:58;;;;;;;25.80;12.32;;;;;;;;;;6211789;28;20053;-62
2022/06/14 04:29:21;;;;;;;30.42;12.20;;;;;;;;;;6207660;28;20053;-62
2022/06/14 04:32:32;;;;;;;25.23;12.10;;;;;;;;;;6211669;28;20128;-61
2022/06/14 04:35:39;;;;;;;24.92;11.60;;;;;;;;;;6208629;28;20076;-62
2022/06/14 04:38:53;;;;;;;25.20;11.20;;;;;;;;;;6209567;28;20045;-62
2022/06/14 04:42:39;;;;;;;26.48;11.23;;;;;;;;;;6200776;28;20042;-62
2022/06/14 04:46:08;;;;;;;23.63;11.38;;;;;;;;;;6167240;28;20087;-61
2022/06/14 04:49:16;;;;;;;25.67;10.68;;;;;;;;;;6169044;28;20074;-62
2022/06/14 04:52:32;;;;;;;21.92;10.40;;;;;;;;;;6211488;28;20046;-61
2022/06/14 04:55:44;;;;;;;23.83;9.88;;;;;;;;;;6210527;28;20065;-61
2022/06/14 04:59:02;;;;;;;20.75;9.25;;;;;;;;;;6208216;28;20119;-61
2022/06/14 05:02:12;;;;;;;20.25;10.05;;;;;;;;;;6201121;28;20737;-61
2022/06/14 05:05:21;;;;;;;28.48;10.88;;;;;;;;;;6207320;28;20409;-61
2022/06/14 05:08:31;;;;;;;20.92;9.70;;;;;;;;;;6207297;28;20137;-62
2022/06/14 05:11:46;;;;;;;22.25;9.57;;;;;;;;;;6204961;28;20050;-61
2022/06/14 05:14:58;;;;;;;22.80;10.13;;;;;;;;;;6211889;28;20069;-62
2022/06/14 05:18:03;;;;;;;18.85;9.60;;;;;;;;;;6206961;28;20547;-61
2022/06/14 05:21:18;;;;;;;23.10;9.77;;;;;;;;;;6211379;28;20054;-61
2022/06/14 05:24:19;;;;;;;21.40;9.63;;;;;;;;;;6211303;28;20524;-61
2022/06/14 05:27:34;;;;;;;28.57;9.57;;;;;;;;;;6205409;28;20913;-61
2022/06/14 05:30:47;;;;;;;21.05;9.20;;;;;;;;;;6207301;28;20140;-61
2022/06/14 05:34:05;;;;;;;17.52;8.48;;;;;;;;;;6206121;28;20046;-61
2022/06/14 05:37:30;;;;;;;25.02;9.35;;;;;;;;;;6202703;28;20054;-62
2022/06/14 05:40:40;;;;;;;24.70;8.88;;;;;;;;;;6209998;28;20056;-62
2022/06/14 05:43:44;;;;;;;20.88;8.55;;;;;;;;;;6208779;28;20092;-62
2022/06/14 05:46:53;;;;;;;21.88;8.90;;;;;;;;;;6208999;28;20556;-62
2022/06/14 05:50:00;;;;;;;21.85;9.45;;;;;;;;;;6209368;28;20052;-62
2022/06/14 05:53:12;;;;;;;22.67;8.80;;;;;;;;;;6204138;28;20061;-61
2022/06/14 05:56:31;;;;;;;18.80;7.90;;;;;;;;;;6207209;28;20038;-61
2022/06/14 05:59:40;;;;;;;19.02;8.45;;;;;;;;;;6206207;28;20061;-61
2022/06/14 06:02:58;;;;;;;20.05;8.77;;;;;;;;;;6207843;28;20046;-61
2022/06/14 06:06:09;;;;;;;20.58;9.13;;;;;;;;;;6204725;28;20038;-62
2022/06/14 06:09:17;;;;;;;16.33;8.23;;;;;;;;;;6209374;28;20040;-61
2022/06/14 06:12:26;;;;;;;17.77;7.82;;;;;;;;;;6208159;28;20529;-61
2022/06/14 06:15:32;;;;;;;14.77;7.18;;;;;;;;;;6210003;28;20053;-62
2022/06/14 06:19:15;;;;;;;19.77;7.68;;;;;;;;;;6206029;28;20510;-62
2022/06/14 06:22:22;;;;;;;22.50;7.57;;;;;;;;;;6197134;28;20042;-62
2022/06/14 06:25:31;;;;;;;17.95;8.18;;;;;;;;;;6206150;28;20441;-61
2022/06/14 06:28:37;;;;;;;17.90;8.13;;;;;;;;;;6206748;28;20358;-62
2022/06/14 06:31:40;;;;;;;32.25;9.07;;;;;;;;;;6202338;28;20499;-61
2022/06/14 06:34:41;;;;;;;15.68;7.78;;;;;;;;;;6210064;28;20050;-61
2022/06/14 06:38:03;;;;;;;14.57;7.65;;;;;;;;;;6203072;28;20929;-62
2022/06/14 06:44:37;;;;;;;14.20;6.40;;;;;;;;;;6206967;28;20568;-62
2022/06/14 06:47:47;;;;;;;13.88;6.30;;;;;;;;;;6200899;28;20485;-62
2022/06/14 06:50:52;;;;;;;14.02;6.13;;;;;;;;;;6198947;28;20137;-61
2022/06/14 06:54:00;;;;;;;12.48;6.03;;;;;;;;;;6205288;28;20727;-62
2022/06/14 06:57:03;;;;;;;13.73;6.70;;;;;;;;;;6202130;28;20077;-61
2022/06/14 07:00:06;;;;;;;13.73;5.93;;;;;;;;;;6205438;28;20141;-62
2022/06/14 07:03:20;;;;;;;12.95;6.05;;;;;;;;;;6205572;28;20764;-62
2022/06/14 07:06:32;;;;;;;12.35;5.15;;;;;;;;;;6204863;28;20050;-62
2022/06/14 07:09:47;;;;;;;;;;;;;;;;;;6208360;28;20502;-62
2022/06/14 07:12:53;;;;;;;12.48;5.03;;;;;;;;;;6203169;28;20284;-62
2022/06/14 07:16:17;;;;;;;12.68;4.93;;;;;;;;;;6199138;28;20081;-62
2022/06/14 07:19:28;;;;;;;11.02;4.72;;;;;;;;;;6202918;28;20081;-61
2022/06/14 07:22:37;;;;;;;11.40;5.35;;;;;;;;;;6205056;28;20050;-62
2022/06/14 07:26:09;;;;;;;11.05;5.30;;;;;;;;;;6202693;28;20123;-62
2022/06/14 07:29:22;;;;;;;13.00;5.32;;;;;;;;;;6202172;28;20402;-62
2022/06/14 07:32:30;;;;;;;10.07;4.63;;;;;;;;;;6202251;28;20053;-62
2022/06/14 07:35:56;;;;;;;11.35;4.63;;;;;;;;;;6205886;28;20417;-62
2022/06/14 07:39:13;;;;;;;8.15;3.80;;;;;;;;;;6197314;28;20137;-62
2022/06/14 07:42:35;;;;;;;9.50;3.75;;;;;;;;;;6201012;28;20046;-61
2022/06/14 07:45:39;;;;;;;9.45;3.60;;;;;;;;;;6203775;28;20054;-62
2022/06/14 07:48:57;;;;;;;12.02;4.03;;;;;;;;;;6204094;28;20228;-62
2022/06/14 07:52:19;;;;;;;6.68;3.28;;;;;;;;;;6207027;28;20085;-62
2022/06/14 07:55:27;;;;;;;6.82;2.90;;;;;;;;;;6206146;28;20090;-62
2022/06/14 07:58:43;;;;;;;5.13;2.63;;;;;;;;;;6203666;28;20077;-62
2022/06/14 08:01:47;;;;;;;6.03;2.85;;;;;;;;;;6205463;28;20065;-62
2022/06/14 08:04:55;;;;;;;6.32;2.50;;;;;;;;;;6205985;28;20046;-62
2022/06/14 08:07:59;;;;;;;7.45;2.88;;;;;;;;;;6202640;28;20428;-62
2022/06/14 08:11:10;;;;;;;6.72;3.20;;;;;;;;;;6201984;28;20070;-62
2022/06/14 08:14:18;;;;;;;5.73;2.90;;;;;;;;;;6197353;28;20579;-62
2022/06/14 08:17:36;;;;;;;4.97;2.63;;;;;;;;;;6202791;28;20298;-62
2022/06/14 08:20:37;;;;;;;6.75;2.58;;;;;;;;;;6201184;28;20042;-62
2022/06/14 08:23:52;;;;;;;6.47;2.47;;;;;;;;;;6198172;28;20060;-62
2022/06/14 08:26:56;;;;;;;6.63;2.70;;;;;;;;;;6203129;28;20446;-62
2022/06/14 08:30:05;;;;;;;7.10;2.35;;;;;;;;;;6204612;28;20456;-62
2022/06/14 08:33:13;;;;;;;5.57;2.50;;;;;;;;;;6202844;28;20466;-62
2022/06/14 08:36:20;;;;;;;6.47;2.70;;;;;;;;;;6200507;28;20049;-62
2022/06/14 08:39:31;;;;;;;6.90;3.97;;;;;;;;;;6203154;28;20050;-62
2022/06/14 08:42:37;;;;;;;7.07;2.85;;;;;;;;;;6199072;28;20042;-62
2022/06/14 08:45:45;;;;;;;6.20;2.83;;;;;;;;;;6206560;28;20077;-62
2022/06/14 08:49:01;;;;;;;6.45;2.40;;;;;;;;;;6208650;28;20052;-62
2022/06/14 08:52:35;;;;;;;6.72;2.08;;;;;;;;;;6204920;28;20061;-63
2022/06/14 08:55:56;;;;;;;6.35;2.05;;;;;;;;;;6205749;28;20050;-61
2022/06/14 08:59:21;;;;;;;4.95;2.00;;;;;;;;;;6205902;28;20138;-62
2022/06/14 09:02:27;;;;;;;4.20;2.30;;;;;;;;;;6206800;28;20081;-62
2022/06/14 09:05:49;;;;;;;7.65;2.40;;;;;;;;;;6204099;28;20524;-62
2022/06/14 09:09:17;;;;;;;5.40;2.55;;;;;;;;;;6209651;28;20056;-61
2022/06/14 09:12:41;;;;;;;6.18;2.80;;;;;;;;;;6205910;28;20058;-62
2022/06/14 09:15:52;;;;;;;6.53;2.90;;;;;;;;;;6209100;28;20077;-62
2022/06/14 09:18:55;;;;;;;7.37;2.93;;;;;;;;;;6210090;28;20131;-62
2022/06/14 09:22:07;;;;;;;8.55;3.10;;;;;;;;;;6208564;28;20045;-62
2022/06/14 09:25:30;;;;;;;8.68;2.70;;;;;;;;;;6209531;28;20092;-62
2022/06/14 09:29:12;;;;;;;5.28;2.45;;;;;;;;;;6203720;28;20049;-62
2022/06/14 09:32:31;;;;;;;6.90;2.80;;;;;;;;;;6205875;28;20038;-62
2022/06/14 09:35:50;;;;;;;9.50;3.10;;;;;;;;;;6205070;28;20921;-61
2022/06/14 09:39:26;;;;;;;8.43;2.55;;;;;;;;;;6207940;28;20453;-62
2022/06/14 09:42:47;;;;;;;5.70;2.55;;;;;;;;;;6204137;28;20057;-62
2022/06/14 09:46:16;;;;;;;5.90;2.80;;;;;;;;;;6193717;28;20058;-61
2022/06/14 09:49:35;;;;;;;6.15;2.60;;;;;;;;;;6202999;28;20068;-62
2022/06/14 09:53:09;;;;;;;5.78;2.78;;;;;;;;;;6206789;28;20046;-62
2022/06/14 09:56:56;;;;;;;8.48;2.80;;;;;;;;;;6204163;28;20053;-62
2022/06/14 10:00:22;;;;;;;14.63;3.33;;;;;;;;;;6203155;28;20050;-62
2022/06/14 10:03:35;;;;;;;8.82;3.70;;;;;;;;;;6209572;28;20103;-61
2022/06/14 10:06:55;;;;;;;7.97;3.40;;;;;;;;;;6204893;28;20052;-62
2022/06/14 10:10:30;;;;;;;7.30;3.17;;;;;;;;;;6208201;28;20042;-62
2022/06/14 10:13:52;;;;;;;6.65;2.92;;;;;;;;;;6056629;28;20218;-62
2022/06/14 10:17:25;;;;;;;11.10;3.35;;;;;;;;;;6209931;28;20144;-61
2022/06/14 10:20:55;;;;;;;6.35;3.45;;;;;;;;;;6209417;28;20615;-62
2022/06/14 10:24:23;;;;;;;8.52;3.45;;;;;;;;;;6205297;28;20076;-62
2022/06/14 10:31:15;;;;;;;7.35;3.20;;;;;;;;;;6204599;28;20038;-62
2022/06/14 10:34:31;;;;;;;8.07;2.92;;;;;;;;;;6205258;28;20081;-62
2022/06/14 10:37:56;;;;;;;8.82;3.30;;;;;;;;;;6201556;28;20070;-62
2022/06/14 10:41:03;;;;;;;6.07;3.40;;;;;;;;;;6203105;28;20081;-62
2022/06/14 10:44:20;;;;;;;8.15;3.47;;;;;;;;;;6208211;28;20501;-62
2022/06/14 10:47:56;;;;;;;7.38;3.38;;;;;;;;;;6203866;28;20034;-62
2022/06/14 10:51:24;;;;;;;6.35;2.38;;;;;;;;;;6197856;28;20057;-62
2022/06/14 10:54:34;;;;;;;8.00;2.50;;;;;;;;;;6192108;28;20472;-62
2022/06/14 10:57:55;;;;;;;4.88;2.25;;;;;;;;;;6203545;28;20628;-62
2022/06/14 11:01:16;;;;;;;7.63;2.28;;;;;;;;;;6204360;28;20095;-63
2022/06/14 11:04:35;;;;;;;6.68;2.30;;;;;;;;;;6203340;28;20058;-62
2022/06/14 11:07:45;;;;;;;6.38;2.80;;;;;;;;;;6197500;28;20500;-62
2022/06/14 11:10:57;;;;;;;6.85;2.90;;;;;;;;;;6197874;28;20189;-63
2022/06/14 11:14:12;;;;;;;8.25;2.63;;;;;;;;;;6197213;28;20108;-62
2022/06/14 11:17:34;;;;;;;9.75;2.72;;;;;;;;;;6201019;28;20050;-64
2022/06/14 11:20:46;;;;;;;6.47;2.65;;;;;;;;;;6197845;28;20477;-62
2022/06/14 11:23:54;;;;;;;8.23;2.53;;;;;;;;;;6182125;28;20077;-63
2022/06/14 11:27:21;;;;;;;8.63;2.33;;;;;;;;;;6177336;28;20065;-63
2022/06/14 11:30:46;;;;;;;5.82;2.47;;;;;;;;;;6176883;28;20070;-63
2022/06/14 11:34:09;;;;;;;11.73;3.13;;;;;;;;;;6185347;28;20058;-63
2022/06/14 11:37:09;;;;;;;;;;;;;;;;;;6182542;28;20050;-62
2022/06/14 11:40:23;;;;;;;8.45;2.63;;;;;;;;;;6176270;28;19957;-63
2022/06/14 11:43:44;;;;;;;9.32;2.50;;;;;;;;;;6174634;28;20114;-62
2022/06/14 11:47:01;;;;;;;7.50;2.65;;;;;;;;;;6180078;28;20038;-62
2022/06/14 11:50:10;;;;;;;5.32;2.63;;;;;;;;;;6182356;28;20064;-62
2022/06/14 11:53:46;;;;;;;5.40;2.50;;;;;;;;;;6183523;28;20070;-63
2022/06/14 11:57:39;;;;;;;5.55;2.40;;;;;;;;;;6159673;28;20373;-64
2022/06/14 12:00:46;;;;;;;7.78;2.25;;;;;;;;;;6168998;28;20081;-63
2022/06/14 12:04:01;;;;;;;7.68;2.30;;;;;;;;;;6180508;28;20049;-62
2022/06/14 12:07:37;;;;;;;10.95;2.47;;;;;;;;;;6183563;28;20054;-63
2022/06/14 12:11:09;;;;;;;5.80;1.85;;;;;;;;;;6178864;28;20054;-62
2022/06/14 12:14:29;;;;;;;5.00;2.58;;;;;;;;;;6180773;28;20043;-63
2022/06/14 12:17:51;;;;;;;5.03;2.40;;;;;;;;;;6194110;28;20065;-63
2022/06/14 12:21:09;;;;;;;5.72;2.35;;;;;;;;;;6204203;28;20092;-62
2022/06/14 12:24:17;;;;;;;8.45;2.60;;;;;;;;;;6206117;28;20134;-62
2022/06/14 12:27:19;;;;;;;5.45;2.40;;;;;;;;;;6204458;28;20060;-62
2022/06/14 12:30:20;;;;;;;7.43;2.40;;;;;;;;;;6208933;28;20414;-62
2022/06/14 12:33:22;;;;;;;7.40;2.80;;;;;;;;;;6216108;28;20053;-63
2022/06/14 12:36:28;;;;;;;6.40;2.88;;;;;;;;;;6207841;28;20303;-62
2022/06/14 12:39:34;;;;;;;8.45;2.30;;;;;;;;;;6208098;28;20041;-63
2022/06/14 12:43:02;;;;;;;5.30;2.13;;;;;;;;;;6210372;28;20115;-63
2022/06/14 12:46:08;;;;;;;7.35;2.40;;;;;;;;;;6207286;28;20070;-62
2022/06/14 12:49:15;;;;;;;4.90;1.85;;;;;;;;;;6211921;28;20046;-62
2022/06/14 12:52:26;;;;;;;6.50;2.08;;;;;;;;;;6207159;28;20077;-62
2022/06/14 12:55:36;;;;;;;7.00;2.42;;;;;;;;;;6213592;28;20509;-62
2022/06/14 12:59:15;;;;;;;9.23;2.45;;;;;;;;;;6205812;28;20081;-62
2022/06/14 13:02:22;;;;;;;3.97;2.00;;;;;;;;;;6205695;28;20518;-62
2022/06/14 13:05:28;;;;;;;7.50;2.20;;;;;;;;;;6196466;28;20105;-62
2022/06/14 13:08:41;;;;;;;4.97;2.08;;;;;;;;;;6211401;28;20075;-63
2022/06/14 13:11:54;;;;;;;3.40;1.92;;;;;;;;;;6206023;28;20042;-63
2022/06/14 13:15:09;;;;;;;5.07;2.00;;;;;;;;;;6201680;28;20046;-62
2022/06/14 13:18:44;;;;;;;6.85;2.20;;;;;;;;;;6206690;28;20551;-63
2022/06/14 13:22:03;;;;;;;7.55;2.72;;;;;;;;;;6209578;28;20494;-62
2022/06/14 13:25:17;;;;;;;4.95;2.17;;;;;;;;;;6209004;28;20758;-62
2022/06/14 13:28:23;;;;;;;5.32;2.20;;;;;;;;;;6186467;28;20058;-62
2022/06/14 13:31:37;;;;;;;5.75;2.10;;;;;;;;;;6189236;28;20065;-63
2022/06/14 13:34:43;;;;;;;5.35;1.83;;;;;;;;;;6191099;28;20054;-63
2022/06/14 13:37:49;;;;;;;3.85;1.90;;;;;;;;;;6191975;28;20056;-63
2022/06/14 13:40:56;;;;;;;4.40;2.00;;;;;;;;;;6194230;28;20127;-63
2022/06/14 13:44:12;;;;;;;4.40;1.90;;;;;;;;;;6196497;28;20616;-63
2022/06/14 13:47:21;;;;;;;8.05;2.10;;;;;;;;;;6189533;28;20084;-63
2022/06/14 13:50:31;;;;;;;5.47;2.20;;;;;;;;;;6193960;28;20088;-62
2022/06/14 13:53:48;;;;;;;7.40;2.28;;;;;;;;;;6191885;28;20133;-62
2022/06/14 13:57:09;;;;;;;5.22;2.15;;;;;;;;;;6193045;28;20742;-62
2022/06/14 14:00:40;;;;;;;6.00;2.10;;;;;;;;;;6192088;28;20050;-63
2022/06/14 14:04:21;;;;;;;3.15;1.80;;;;;;;;;;6192201;28;20086;-62
2022/06/14 14:07:29;;;;;;;4.85;2.00;;;;;;;;;;6190411;28;20162;-62
2022/06/14 14:10:54;;;;;;;5.53;2.25;;;;;;;;;;6189710;28;20056;-63
2022/06/14 14:14:22;;;;;;;6.25;2.00;;;;;;;;;;6192456;28;20085;-62
2022/06/14 14:17:53;;;;;;;5.82;1.75;;;;;;;;;;6185497;28;20153;-62
2022/06/14 14:21:07;;;;;;;5.03;2.10;;;;;;;;;;6193992;28;20049;-62
2022/06/14 14:24:37;;;;;;;5.07;2.05;;;;;;;;;;6188833;28;20401;-59
2022/06/14 14:27:46;;;;;;;5.40;2.10;;;;;;;;;;6155864;28;20049;-62
2022/06/14 14:30:54;;;;;;;6.22;2.20;;;;;;;;;;6193877;28;20619;-62
2022/06/14 14:34:36;;;;;;;6.93;2.15;;;;;;;;;;6191365;28;20183;-62
2022/06/14 14:37:43;;;;;;;5.35;2.33;;;;;;;;;;6179679;28;20089;-61
2022/06/14 14:44:20;;;;;;;10.00;3.17;;;;;;;;;;6191879;28;20137;-61
2022/06/14 14:47:37;;;;;;;5.75;2.47;;;;;;;;;;6186341;28;20126;-62
2022/06/14 14:51:02;;;;;;;7.53;2.80;;;;;;;;;;6192552;28;20074;-62
2022/06/14 14:54:08;;;;;;;6.47;2.22;;;;;;;;;;6180115;28;20100;-62
2022/06/14 14:57:23;;;;;;;5.05;2.30;;;;;;;;;;6190267;28;20544;-62
2022/06/14 15:07:50;;;;;;;7.15;2.20;;;;;;;;;;6191142;28;20046;-62
2022/06/14 15:11:23;;;;;;;5.38;1.88;;;;;;;;;;6188493;28;20152;-62
2022/06/14 15:14:24;;;;;;;;;;;;;;;;;;6188553;28;20473;-63
2022/06/14 15:19:54;;;;;;;5.50;2.30;;;;;;;;;;6191358;28;19987;-62
2022/06/14 15:21:03;;;;;;;9.73;2.17;;;;;;;;;;6189148;28;20438;-61
2022/06/14 15:24:12;;;;;;;5.07;2.13;;;;;;;;;;6191579;28;20082;-60
2022/06/14 15:27:17;;;;;;;7.05;2.00;;;;;;;;;;6189023;28;20085;-60
2022/06/14 15:30:41;;;;;;;5.75;2.25;;;;;;;;;;6191627;28;20140;-61
2022/06/14 15:33:42;;;;;;;7.07;2.50;;;;;;;;;;6192512;28;20481;-64
2022/06/14 15:36:45;;;;;;;6.10;2.20;;;;;;;;;;6187904;28;20049;-64
2022/06/14 15:40:14;;;;;;;6.18;2.20;;;;;;;;;;6188273;28;20560;-63
2022/06/14 15:43:26;;;;;;;5.72;2.30;;;;;;;;;;6192268;28;20073;-73
2022/06/14 15:46:30;;;;;;;4.15;2.03;;;;;;;;;;6177352;28;20454;-63
2022/06/14 15:49:49;;;;;;;5.68;2.22;;;;;;;;;;6186817;28;20236;-61
2022/06/14 15:52:55;;;;;;;4.20;2.20;;;;;;;;;;6188658;28;20054;-61
2022/06/14 15:55:57;;;;;;;4.75;2.30;;;;;;;;;;6191402;28;20140;-61
2022/06/14 15:59:01;;;;;;;4.68;2.20;;;;;;;;;;6188353;28;20189;-62
2022/06/14 16:02:10;;;;;;;7.55;2.63;;;;;;;;;;6197113;28;20096;-61
2022/06/14 16:05:21;;;;;;;5.78;2.30;;;;;;;;;;6202972;28;20200;-62
2022/06/14 16:08:29;;;;;;;5.43;2.13;;;;;;;;;;6197178;28;20100;-62
2022/06/14 16:11:40;;;;;;;6.30;2.25;;;;;;;;;;6200249;28;20324;-61
2022/06/14 16:14:49;;;;;;;7.95;2.38;;;;;;;;;;6199330;28;20157;-62
2022/06/14 16:17:51;;;;;;;6.25;2.20;;;;;;;;;;6196990;28;20057;-61
2022/06/14 16:20:59;;;;;;;8.27;2.40;;;;;;;;;;6196622;28;20073;-62
2022/06/14 16:24:04;;;;;;;7.13;2.67;;;;;;;;;;6201367;28;20840;-62
2022/06/14 16:27:24;;;;;;;6.85;2.45;;;;;;;;;;6195105;28;20365;-60
2022/06/14 16:30:36;;;;;;;6.38;2.40;;;;;;;;;;6199961;28;20492;-62
2022/06/14 16:34:01;;;;;;;5.25;2.40;;;;;;;;;;6200126;28;20173;-62
2022/06/14 16:37:16;;;;;;;18.25;5.80;;;;;;;;;;6195605;28;20550;-62
2022/06/14 16:40:31;;;;;;;6.93;2.50;;;;;;;;;;6202900;28;20100;-61
2022/06/14 16:43:47;;;;;;;10.15;3.83;;;;;;;;;;6194961;28;20093;-61
2022/06/14 16:47:01;;;;;;;5.93;2.60;;;;;;;;;;6199733;28;20472;-62
2022/06/14 16:50:27;;;;;;;8.38;2.33;;;;;;;;;;6197193;28;20074;-61
2022/06/14 16:53:57;;;;;;;7.63;2.70;;;;;;;;;;6198324;28;20168;-61
2022/06/14 16:57:22;;;;;;;7.10;2.40;;;;;;;;;;6197815;28;20078;-61
2022/06/14 17:00:39;;;;;;;10.25;2.63;;;;;;;;;;6196868;28;20160;-62
2022/06/14 17:03:58;;;;;;;5.30;2.65;;;;;;;;;;6194762;28;20069;-61
2022/06/14 17:07:15;;;;;;;7.15;2.45;;;;;;;;;;6201304;28;20605;-62
2022/06/14 17:11:00;;;;;;;6.57;3.05;;;;;;;;;;6197471;28;20053;-62
2022/06/14 17:14:39;;;;;;;4.47;2.10;;;;;;;;;;6134399;28;20085;-61
2022/06/14 17:17:57;;;;;;;8.93;2.35;;;;;;;;;;6122478;28;20085;-62
2022/06/14 17:21:37;;;;;;;6.60;2.45;;;;;;;;;;6195889;28;21587;-61
2022/06/14 17:24:41;;;;;;;5.90;2.58;;;;;;;;;;6196190;28;20062;-62
2022/06/14 17:31:13;;;;;;;6.18;2.70;;;;;;;;;;6193862;28;20061;-61
2022/06/14 17:34:36;;;;;;;4.97;2.35;;;;;;;;;;6190518;28;20185;-61
2022/06/14 17:37:52;;;;;;;4.85;2.70;;;;;;;;;;6194466;28;20571;-62
2022/06/14 17:41:01;;;;;;;5.22;2.45;;;;;;;;;;6192046;28;20183;-62
2022/06/14 17:44:07;;;;;;;13.73;4.07;;;;;;;;;;6193566;28;20050;-61
2022/06/14 17:47:10;;;;;;;12.05;4.22;;;;;;;;;;6189172;28;20049;-61
2022/06/14 17:50:32;;;;;;;11.57;4.82;;;;;;;;;;6192912;28;20481;-63
2022/06/14 17:53:55;;;;;;;;;;;;;;;;;;6193462;28;20083;-62
2022/06/14 17:57:06;;;;;;;12.05;2.92;;;;;;;;;;6194332;28;20503;-62
2022/06/14 18:00:12;;;;;;;;;;;;;;;;;;6198087;28;20116;-62
2022/06/14 18:03:13;;;;;;;9.85;3.33;;;;;;;;;;6190617;28;19972;-62
2022/06/14 18:06:14;;;;;;;7.40;3.20;;;;;;;;;;6192711;28;20443;-61
2022/06/14 18:09:16;;;;;;;8.57;3.00;;;;;;;;;;6189184;28;20300;-63
2022/06/14 18:12:21;;;;;;;9.48;3.00;;;;;;;;;;6196560;28;20054;-61
2022/06/14 18:15:29;;;;;;;6.43;3.10;;;;;;;;;;6191486;28;20057;-60
2022/06/14 18:18:37;;;;;;;7.65;3.63;;;;;;;;;;6192099;28;20078;-61
2022/06/14 18:21:41;;;;;;;5.70;2.72;;;;;;;;;;6186638;28;20540;-63
2022/06/14 18:24:58;;;;;;;6.80;3.03;;;;;;;;;;6198413;28;20076;-63
2022/06/14 18:27:58;;;;;;;9.50;3.38;;;;;;;;;;6191368;28;20096;-61
2022/06/14 18:31:07;;;;;;;8.50;2.90;;;;;;;;;;6194281;28;20046;-62
2022/06/14 18:34:29;;;;;;;6.78;2.97;;;;;;;;;;6188770;28;20406;-61
2022/06/14 18:37:33;;;;;;;;;;;;;;;;;;6195013;28;20509;-61
2022/06/14 18:40:37;;;;;;;8.65;3.60;;;;;;;;;;6195395;28;19936;-62
2022/06/14 18:44:22;;;;;;;11.10;3.25;;;;;;;;;;6187871;28;20065;-62
2022/06/14 18:47:29;;;;;;;8.35;3.03;;;;;;;;;;6161313;28;20080;-62
2022/06/14 18:50:57;;;;;;;11.50;3.60;;;;;;;;;;6196745;28;20042;-61
2022/06/14 18:54:04;;;;;;;5.55;3.75;;;;;;;;;;6193095;28;20107;-61
2022/06/14 18:57:05;;;;;;;14.65;3.60;;;;;;;;;;6191090;28;20081;-62
2022/06/14 19:00:06;;;;;;;12.23;4.27;;;;;;;;;;6189113;28;20069;-61
2022/06/14 19:03:16;;;;;;;7.18;3.40;;;;;;;;;;6188089;28;20509;-61
2022/06/14 19:06:40;;;;;;;7.82;4.18;;;;;;;;;;6190825;28;20058;-61
2022/06/14 19:10:29;;;;;;;7.55;3.72;;;;;;;;;;6193772;28;20096;-62
2022/06/14 19:13:52;;;;;;;12.88;4.07;;;;;;;;;;6180616;28;20529;-60
2022/06/14 19:17:11;;;;;;;11.25;5.40;;;;;;;;;;6187800;28;20066;-60
2022/06/14 19:20:40;;;;;;;13.98;5.53;;;;;;;;;;6188373;28;20046;-60
2022/06/14 19:24:02;;;;;;;10.63;5.25;;;;;;;;;;6195442;28;20081;-60
2022/06/14 19:27:15;;;;;;;16.30;7.07;;;;;;;;;;6190754;28;20124;-61
2022/06/14 19:31:07;;;;;;;16.70;7.50;;;;;;;;;;6194267;28;20069;-60
2022/06/14 19:34:25;;;;;;;17.17;8.23;;;;;;;;;;6174525;28;20065;-60
2022/06/14 19:37:46;;;;;;;14.38;7.50;;;;;;;;;;6174961;28;20058;-60
2022/06/14 19:40:53;;;;;;;16.63;6.80;;;;;;;;;;6192398;28;20120;-62
2022/06/14 19:44:00;;;;;;;15.45;7.07;;;;;;;;;;6193273;28;20054;-62